Time;durP1;ratioP1;P1;durP2;ratioP2;P2;SDS_P1;SDS_P2;PMS_P1;PMS_P2;Temp;Humidity;BMP_temperature;BMP_pressure;BME280_temperature;BME280_humidity;BME280_pressure;Samples;Min_cycle;Max_cycle;Signal;HPM_P1;HPM_P2
2022/12/09 00:01:15;;;;;;;13.32;9.60;;;;;;;2.25;86.34;97077.19;4190498;28;20292;-83
2022/12/09 00:03:18;;;;;;;14.13;9.52;;;;;;;2.19;85.96;97072.34;4204375;28;20201;-83
2022/12/09 00:05:25;;;;;;;14.30;9.80;;;;;;;2.19;86.34;97068.03;4208312;28;20228;-84
2022/12/09 00:07:28;;;;;;;14.40;9.60;;;;;;;2.17;86.87;97054.44;4209537;28;20287;-84
2022/12/09 00:09:31;;;;;;;13.48;9.57;;;;;;;2.18;87.39;97055.25;4188825;28;20761;-85
2022/12/09 00:11:36;;;;;;;12.90;8.73;;;;;;;2.15;87.09;97052.84;4187560;28;20301;-85
2022/12/09 00:13:39;;;;;;;13.65;8.75;;;;;;;2.14;87.13;97048.63;4184219;28;20202;-84
2022/12/09 00:15:42;;;;;;;12.15;8.18;;;;;;;2.10;86.57;97052.25;4186410;28;20214;-83
2022/12/09 00:17:46;;;;;;;11.32;8.60;;;;;;;2.06;86.56;97045.59;4201251;28;20198;-83
2022/12/09 00:19:49;;;;;;;14.25;9.40;;;;;;;2.03;86.09;97046.63;4181579;28;20775;-83
2022/12/09 00:21:52;;;;;;;15.02;8.57;;;;;;;2.03;86.23;97049.19;4195068;28;20205;-83
2022/12/09 00:23:57;;;;;;;12.93;8.98;;;;;;;2.01;86.67;97047.59;4187981;28;20202;-83
2022/12/09 00:26:00;;;;;;;10.98;9.20;;;;;;;1.99;86.62;97034.81;4183824;28;20872;-84
2022/12/09 00:28:05;;;;;;;16.02;9.80;;;;;;;2.00;86.72;97039.06;4185762;28;20301;-84
2022/12/09 00:30:09;;;;;;;12.85;8.90;;;;;;;1.98;86.53;97035.72;4187634;28;20780;-84
2022/12/09 00:32:13;;;;;;;14.55;10.10;;;;;;;1.97;86.63;97035.78;4189399;28;20740;-83
2022/12/09 00:34:16;;;;;;;14.23;9.65;;;;;;;1.95;86.20;97040.19;4190956;28;20202;-83
2022/12/09 00:36:21;;;;;;;14.80;9.52;;;;;;;1.90;86.29;97025.00;4201667;28;20216;-83
2022/12/09 00:38:24;;;;;;;13.52;9.40;;;;;;;1.89;86.29;97023.38;4204986;28;20253;-83
2022/12/09 00:40:27;;;;;;;14.20;9.63;;;;;;;1.89;86.47;97023.38;4204594;28;20200;-83
2022/12/09 00:42:30;;;;;;;13.60;9.52;;;;;;;1.87;86.25;97024.34;4187258;28;20319;-85
2022/12/09 00:44:35;;;;;;;13.50;8.70;;;;;;;1.87;86.24;97025.16;4202447;28;20213;-84
2022/12/09 00:46:38;;;;;;;18.50;9.43;;;;;;;1.88;86.06;97026.03;4203877;28;20217;-83
2022/12/09 00:48:44;;;;;;;13.30;8.57;;;;;;;1.89;86.27;97025.09;4200025;28;20622;-85
2022/12/09 00:50:48;;;;;;;12.88;9.27;;;;;;;1.87;85.95;97032.88;4183990;28;20636;-83
2022/12/09 00:52:51;;;;;;;12.15;8.38;;;;;;;1.86;85.98;97027.00;4200777;28;20628;-83
2022/12/09 00:54:54;;;;;;;12.02;8.07;;;;;;;1.83;86.03;97022.84;4188405;28;20239;-83
2022/12/09 00:56:57;;;;;;;10.93;8.20;;;;;;;1.84;85.89;97024.50;4198838;28;20193;-83
2022/12/09 00:59:00;;;;;;;13.15;8.02;;;;;;;1.83;86.24;97027.97;4188098;28;20207;-83
2022/12/09 01:01:05;;;;;;;11.52;8.63;;;;;;;1.79;85.72;97023.06;4186285;28;20576;-83
2022/12/09 01:03:12;;;;;;;12.88;9.25;;;;;;;1.77;86.23;97019.75;4187022;28;20683;-83
2022/12/09 01:05:15;;;;;;;14.95;9.60;;;;;;;1.77;86.12;97023.16;4200301;28;20319;-83
2022/12/09 01:07:18;;;;;;;13.48;9.18;;;;;;;1.77;86.23;97032.59;4200019;28;20249;-84
2022/12/09 01:09:22;;;;;;;12.75;8.45;;;;;;;1.75;86.75;97026.72;4207641;28;20209;-83
2022/12/09 01:11:28;;;;;;;15.77;9.15;;;;;;;1.74;86.27;97037.91;4186241;28;20764;-83
2022/12/09 01:13:31;;;;;;;14.23;9.05;;;;;;;1.70;86.38;97026.97;4207149;28;20204;-83
2022/12/09 01:15:35;;;;;;;14.13;9.48;;;;;;;1.73;86.66;97025.94;4205549;28;20300;-84
2022/12/09 01:17:40;;;;;;;14.75;9.15;;;;;;;1.72;86.56;97032.84;4204940;28;20202;-84
2022/12/09 01:19:44;;;;;;;13.68;9.30;;;;;;;1.73;86.13;97036.22;4188324;28;20210;-82
2022/12/09 01:21:47;;;;;;;10.80;8.90;;;;;;;1.71;85.96;97035.50;4192206;28;20229;-84
2022/12/09 01:23:50;;;;;;;15.18;9.35;;;;;;;1.70;85.89;97041.53;4200782;28;20255;-83
2022/12/09 01:25:53;;;;;;;15.55;8.82;;;;;;;1.70;85.89;97036.38;4191483;28;20300;-83
2022/12/09 01:27:56;;;;;;;11.85;8.32;;;;;;;1.68;86.37;97039.03;4184243;28;20225;-83
2022/12/09 01:29:59;;;;;;;14.05;8.57;;;;;;;1.65;85.92;97035.78;4200872;28;20869;-83
2022/12/09 01:32:03;;;;;;;14.25;9.27;;;;;;;1.65;86.21;97038.38;4187012;28;20944;-82
2022/12/09 01:34:07;;;;;;;11.68;8.10;;;;;;;1.64;86.48;97032.41;4198454;28;20201;-84
2022/12/09 01:36:12;;;;;;;15.10;8.60;;;;;;;1.66;86.37;97032.34;4182424;28;20202;-84
2022/12/09 01:38:16;;;;;;;13.90;9.00;;;;;;;1.65;86.27;97031.47;4199097;28;20201;-83
2022/12/09 01:40:19;;;;;;;13.40;8.55;;;;;;;1.67;86.59;97027.13;4189660;28;20212;-83
2022/12/09 01:42:25;;;;;;;10.80;8.20;;;;;;;1.65;86.32;97023.78;4206424;28;20216;-83
2022/12/09 01:44:28;;;;;;;14.00;9.73;;;;;;;1.62;86.29;97023.94;4198284;28;20560;-84
2022/12/09 01:46:31;;;;;;;14.40;9.27;;;;;;;1.59;86.16;97013.81;4183052;28;20208;-83
2022/12/09 01:48:37;;;;;;;14.43;10.07;;;;;;;1.58;85.66;97013.88;4179004;28;20253;-83
2022/12/09 01:50:46;;;;;;;11.73;8.10;;;;;;;1.54;85.22;97020.09;4196035;28;20786;-83
2022/12/09 01:52:50;;;;;;;11.60;8.52;;;;;;;1.46;84.47;97017.91;4181988;28;20900;-82
2022/12/09 01:54:53;;;;;;;12.90;8.25;;;;;;;1.41;84.66;97014.75;4197392;28;20211;-83
2022/12/09 01:56:56;;;;;;;11.32;7.72;;;;;;;1.41;84.56;97012.19;4195075;28;20958;-83
2022/12/09 01:59:03;;;;;;;14.43;8.40;;;;;;;1.40;84.80;97010.53;4186985;28;20214;-84
2022/12/09 02:01:07;;;;;;;19.15;8.55;;;;;;;1.40;84.90;97005.38;4198615;28;20201;-83
2022/12/09 02:03:11;;;;;;;13.00;7.72;;;;;;;1.40;85.41;96997.69;4199037;28;20209;-83
2022/12/09 02:05:15;;;;;;;13.43;7.68;;;;;;;1.40;85.65;96996.88;4186491;28;20224;-84
2022/12/09 02:07:23;;;;;;;13.20;8.75;;;;;;;1.39;84.88;96990.88;4185941;28;20843;-83
2022/12/09 02:09:27;;;;;;;13.93;7.80;;;;;;;1.39;85.11;96993.44;4183307;28;20209;-83
2022/12/09 02:11:42;;;;;;;10.75;7.53;;;;;;;1.39;84.94;96991.81;4199813;28;20217;-83
2022/12/09 02:13:54;;;;;;;10.68;7.57;;;;;;;1.35;84.75;96982.59;4183753;28;20205;-84
2022/12/09 02:15:59;;;;;;;10.77;7.57;;;;;;;1.32;85.01;96987.88;4187565;28;20262;-84
2022/12/09 02:18:08;;;;;;;9.85;7.55;;;;;;;1.30;85.32;96984.56;4180521;28;20650;-85
2022/12/09 02:20:15;;;;;;;10.43;7.50;;;;;;;1.28;85.21;96984.63;4197198;28;20208;-84
2022/12/09 02:22:24;;;;;;;14.25;7.40;;;;;;;1.29;84.88;96980.31;4181658;28;20201;-84
2022/12/09 02:24:36;;;;;;;12.15;7.43;;;;;;;1.29;85.30;96977.75;4184457;28;20217;-83
2022/12/09 02:26:41;;;;;;;11.15;8.50;;;;;;;1.26;85.57;96973.59;4200775;28;20209;-83
2022/12/09 02:28:59;;;;;;;13.25;7.60;;;;;;;1.24;85.49;96964.31;4198410;28;20263;-84
2022/12/09 02:31:17;;;;;;;11.52;7.63;;;;;;;1.22;85.95;96961.84;4196718;28;20589;-84
2022/12/09 02:33:31;;;;;;;12.20;7.68;;;;;;;1.23;86.07;96960.09;4184345;28;20252;-84
2022/12/09 02:35:39;;;;;;;13.57;7.35;;;;;;;1.22;85.21;96951.56;4178778;28;20207;-84
2022/12/09 02:37:46;;;;;;;13.73;8.43;;;;;;;1.20;85.10;96952.53;4185172;28;20561;-83
2022/12/09 02:39:52;;;;;;;11.75;8.18;;;;;;;1.18;85.13;96946.66;4196031;28;20686;-83
2022/12/09 02:41:59;;;;;;;11.70;7.90;;;;;;;1.18;85.51;96944.09;4200527;28;20204;-83
2022/12/09 02:44:05;;;;;;;9.15;7.22;;;;;;;1.18;85.09;96944.09;4185190;28;20639;-83
2022/12/09 02:46:10;;;;;;;10.13;7.13;;;;;;;1.19;85.34;96941.47;4182964;28;20202;-85
2022/12/09 02:48:15;;;;;;;10.82;7.25;;;;;;;1.18;85.22;96926.94;4183951;28;20775;-84
2022/12/09 02:50:23;;;;;;;13.98;8.07;;;;;;;1.16;85.05;96927.97;4180918;28;20197;-83
2022/12/09 02:52:29;;;;;;;11.02;8.02;;;;;;;1.14;85.69;96930.59;4185002;28;20210;-85
2022/12/09 02:54:33;;;;;;;12.80;7.93;;;;;;;1.18;85.01;96932.09;4182911;28;20222;-85
2022/12/09 02:56:37;;;;;;;11.07;7.57;;;;;;;1.18;85.65;96934.66;4188383;28;20235;-84
2022/12/09 02:58:40;;;;;;;11.02;7.35;;;;;;;1.16;84.50;96935.66;4177569;28;20198;-83
2022/12/09 03:00:43;;;;;;;10.65;7.60;;;;;;;1.12;83.97;96934.13;4186663;28;20209;-84
2022/12/09 03:02:49;;;;;;;13.68;8.05;;;;;;;1.07;84.24;96931.81;4198954;28;20205;-84
2022/12/09 03:04:59;;;;;;;12.40;7.40;;;;;;;1.05;84.95;96936.19;4197036;28;20221;-83
2022/12/09 03:07:10;;;;;;;10.65;7.45;;;;;;;1.05;84.39;96938.75;4197382;28;20338;-86
2022/12/09 03:09:17;;;;;;;9.45;7.28;;;;;;;1.06;84.59;96932.69;4188777;28;20252;-83
2022/12/09 03:11:22;;;;;;;11.27;7.78;;;;;;;1.04;84.69;96931.94;4186232;28;20209;-84
2022/12/09 03:13:33;;;;;;;11.38;8.15;;;;;;;1.02;84.63;96931.22;4187627;28;20193;-84
2022/12/09 03:15:37;;;;;;;12.10;7.82;;;;;;;1.02;84.89;96936.34;4179650;28;20289;-83
2022/12/09 03:17:41;;;;;;;10.45;6.57;;;;;;;0.97;84.23;96929.78;4182454;28;20202;-85
2022/12/09 03:19:46;;;;;;;9.43;6.28;;;;;;;0.93;83.81;96920.56;4197009;28;20231;-84
2022/12/09 03:21:53;;;;;;;12.65;6.95;;;;;;;0.89;83.65;96918.22;4180722;28;20206;-83
2022/12/09 03:23:58;;;;;;;10.77;6.93;;;;;;;0.87;83.93;96918.28;4185933;28;20212;-84
2022/12/09 03:26:04;;;;;;;11.00;7.10;;;;;;;0.85;84.40;96916.72;4189185;28;20234;-84
2022/12/09 03:28:09;;;;;;;8.63;6.63;;;;;;;0.86;83.80;96916.66;4185280;28;20247;-84
2022/12/09 03:30:14;;;;;;;13.27;6.47;;;;;;;0.86;84.00;96911.53;4199866;28;20236;-84
2022/12/09 03:32:19;;;;;;;11.32;7.60;;;;;;;0.85;84.31;96909.84;4197604;28;20194;-84
2022/12/09 03:34:24;;;;;;;10.23;7.18;;;;;;;0.81;83.87;96908.31;4202040;28;20200;-84
2022/12/09 03:36:29;;;;;;;10.60;7.30;;;;;;;0.75;83.67;96902.69;4188944;28;20403;-85
2022/12/09 03:38:35;;;;;;;12.93;7.45;;;;;;;0.66;84.30;96898.84;4190381;28;20240;-83
2022/12/09 03:40:40;;;;;;;7.82;6.75;;;;;;;0.62;84.56;96896.50;4198283;28;20561;-83
2022/12/09 03:42:49;;;;;;;11.30;7.30;;;;;;;0.57;83.54;96893.31;4200522;28;20302;-84
2022/12/09 03:44:55;;;;;;;11.93;7.13;;;;;;;0.55;84.43;96901.09;4202821;28;20256;-83
2022/12/09 03:46:59;;;;;;;11.43;6.88;;;;;;;0.51;83.33;96891.06;4201188;28;20193;-83
2022/12/09 03:49:02;;;;;;;11.38;7.40;;;;;;;0.48;83.13;96892.06;4198193;28;20221;-84
2022/12/09 03:51:10;;;;;;;11.77;6.55;;;;;;;0.47;83.51;96897.25;4199105;28;20288;-83
2022/12/09 03:53:16;;;;;;;11.43;7.20;;;;;;;0.42;82.89;96893.25;4202371;28;20211;-84
2022/12/09 03:55:26;;;;;;;9.20;6.80;;;;;;;0.43;83.23;96897.47;4189770;28;20233;-84
2022/12/09 03:57:29;;;;;;;13.27;7.90;;;;;;;0.42;84.35;96899.19;4184099;28;20681;-84
2022/12/09 03:59:34;;;;;;;11.13;7.13;;;;;;;0.45;84.37;96893.91;4199528;28;20232;-83
2022/12/09 04:01:38;;;;;;;9.63;6.60;;;;;;;0.50;84.62;96889.41;4186871;28;20711;-84
2022/12/09 04:03:44;;;;;;;12.57;7.45;;;;;;;0.49;85.27;96886.00;4185149;28;20197;-83
2022/12/09 04:05:48;;;;;;;9.65;7.25;;;;;;;0.51;85.22;96888.50;4198126;28;20193;-85
2022/12/09 04:07:51;;;;;;;11.18;6.72;;;;;;;0.55;85.24;96890.81;4199600;28;20595;-83
2022/12/09 04:09:55;;;;;;;9.63;6.28;;;;;;;0.55;84.70;96885.69;4181793;28;20234;-84
2022/12/09 04:11:58;;;;;;;9.45;7.22;;;;;;;0.56;84.72;96889.13;4180983;28;20210;-85
2022/12/09 04:14:01;;;;;;;13.20;7.70;;;;;;;0.58;84.61;96887.28;4183582;28;20237;-84
2022/12/09 04:16:06;;;;;;;9.88;6.78;;;;;;;0.60;84.58;96888.03;4189345;28;20652;-84
2022/12/09 04:18:09;;;;;;;8.73;6.38;;;;;;;0.60;85.18;96882.91;4182379;28;20205;-83
2022/12/09 04:20:13;;;;;;;9.95;6.53;;;;;;;0.58;84.53;96882.16;4196313;28;20229;-85
2022/12/09 04:22:17;;;;;;;11.15;6.93;;;;;;;0.60;84.97;96883.75;4185812;28;20272;-84
2022/12/09 04:24:21;;;;;;;9.50;6.90;;;;;;;0.64;84.59;96882.69;4204509;28;20300;-84
2022/12/09 04:26:24;;;;;;;12.40;7.43;;;;;;;0.61;85.18;96874.31;4183921;28;20762;-83
2022/12/09 04:28:27;;;;;;;8.07;6.38;;;;;;;0.60;85.31;96880.34;4189849;28;21574;-83
2022/12/09 04:30:32;;;;;;;9.30;6.25;;;;;;;0.62;84.79;96881.13;4203348;28;20292;-83
2022/12/09 04:32:37;;;;;;;8.77;6.35;;;;;;;0.65;84.88;96878.41;4184328;28;20225;-84
2022/12/09 04:34:40;;;;;;;10.07;7.35;;;;;;;0.67;85.13;96881.72;4187016;28;20301;-84
2022/12/09 04:36:43;;;;;;;9.70;6.90;;;;;;;0.70;84.99;96884.94;4188993;28;20202;-83
2022/12/09 04:38:47;;;;;;;10.65;7.07;;;;;;;0.70;85.45;96881.56;4178811;28;20288;-84
2022/12/09 04:40:53;;;;;;;13.60;8.10;;;;;;;0.74;85.85;96880.53;4181686;28;20205;-83
2022/12/09 04:42:57;;;;;;;11.02;8.07;;;;;;;0.76;85.97;96873.56;4199924;28;20217;-84
2022/12/09 04:45:00;;;;;;;12.23;8.02;;;;;;;0.81;86.05;96861.34;4186295;28;20316;-84
2022/12/09 04:47:04;;;;;;;10.48;7.78;;;;;;;0.83;85.92;96852.66;4184367;28;20286;-84
2022/12/09 04:49:09;;;;;;;10.80;7.07;;;;;;;0.82;85.25;96845.88;4187553;28;20247;-83
2022/12/09 04:51:13;;;;;;;10.50;6.75;;;;;;;0.75;84.74;96836.00;4201389;28;20223;-85
2022/12/09 04:53:16;;;;;;;14.32;7.15;;;;;;;0.72;84.74;96837.00;4187001;28;20306;-84
2022/12/09 04:55:20;;;;;;;11.13;7.00;;;;;;;0.75;84.23;96846.25;4183989;28;20662;-84
2022/12/09 04:57:23;;;;;;;10.60;7.68;;;;;;;0.72;84.21;96833.59;4199086;28;20618;-84
2022/12/09 04:59:27;;;;;;;10.95;6.90;;;;;;;0.72;84.64;96834.44;4196624;28;20194;-85
2022/12/09 05:01:31;;;;;;;12.55;8.20;;;;;;;0.76;85.08;96828.22;4188776;28;20251;-85
2022/12/09 05:03:34;;;;;;;13.20;8.18;;;;;;;0.75;85.30;96826.59;4185111;28;20210;-84
2022/12/09 05:05:40;;;;;;;12.00;7.75;;;;;;;0.78;85.73;96828.97;4184467;28;20213;-85
2022/12/09 05:07:44;;;;;;;12.30;7.95;;;;;;;0.82;85.71;96830.47;4205337;28;20554;-84
2022/12/09 05:09:47;;;;;;;13.10;8.68;;;;;;;0.79;85.23;96822.13;4183420;28;20260;-84
2022/12/09 05:11:52;;;;;;;11.27;8.20;;;;;;;0.76;84.78;96824.84;4187455;28;20221;-84
2022/12/09 05:13:55;;;;;;;12.23;8.70;;;;;;;0.76;85.36;96819.72;4202111;28;20210;-84
2022/12/09 05:16:00;;;;;;;11.30;8.25;;;;;;;0.79;85.53;96822.13;4198361;28;20210;-84
2022/12/09 05:18:04;;;;;;;14.65;9.10;;;;;;;0.83;85.70;96815.91;4199715;28;20684;-85
2022/12/09 05:20:08;;;;;;;16.20;8.70;;;;;;;0.86;85.57;96806.34;4185822;28;20600;-85
2022/12/09 05:22:15;;;;;;;12.02;8.30;;;;;;;0.90;85.31;96814.69;4200044;28;20575;-85
2022/12/09 05:24:19;;;;;;;13.35;8.70;;;;;;;0.90;85.51;96815.53;4187551;28;20203;-85
2022/12/09 05:26:22;;;;;;;14.38;10.32;;;;;;;0.81;86.39;96813.41;4200542;28;20213;-84
2022/12/09 05:28:26;;;;;;;16.23;9.38;;;;;;;0.81;86.44;96810.84;4200509;28;20259;-83
2022/12/09 05:30:29;;;;;;;16.50;10.68;;;;;;;0.85;86.20;96814.94;4188062;28;20236;-84
2022/12/09 05:32:32;;;;;;;20.33;10.57;;;;;;;0.85;85.97;96807.25;4200600;28;20308;-85
2022/12/09 05:34:36;;;;;;;17.88;10.60;;;;;;;0.79;86.51;96799.84;4200461;28;20202;-84
2022/12/09 05:36:39;;;;;;;15.00;10.77;;;;;;;0.80;86.66;96806.66;4195322;28;20634;-85
2022/12/09 05:38:44;;;;;;;16.83;10.38;;;;;;;0.81;86.65;96805.72;4200500;28;20616;-84
2022/12/09 05:40:47;;;;;;;12.00;9.40;;;;;;;0.79;86.28;96806.72;4186298;28;20208;-84
2022/12/09 05:42:51;;;;;;;12.55;8.82;;;;;;;0.77;85.70;96799.13;4200890;28;20208;-84
2022/12/09 05:44:54;;;;;;;13.82;10.13;;;;;;;0.71;84.89;96799.44;4187688;28;20221;-84
2022/12/09 05:46:58;;;;;;;17.02;10.45;;;;;;;0.66;84.84;96787.72;4201126;28;20215;-84
2022/12/09 05:49:01;;;;;;;14.10;9.07;;;;;;;0.65;84.84;96797.16;4184083;28;20214;-84
2022/12/09 05:51:06;;;;;;;14.77;9.27;;;;;;;0.63;84.25;96796.44;4184091;28;20701;-85
2022/12/09 05:53:10;;;;;;;13.45;9.65;;;;;;;0.63;84.52;96786.16;4208264;28;20246;-84
2022/12/09 05:55:14;;;;;;;13.63;10.10;;;;;;;0.65;85.23;96791.22;4203151;28;20654;-84
2022/12/09 05:57:17;;;;;;;16.75;10.38;;;;;;;0.57;84.86;96781.34;4187245;28;20743;-85
2022/12/09 05:59:21;;;;;;;11.98;9.85;;;;;;;0.55;84.83;96772.88;4179896;28;20259;-83
2022/12/09 06:01:25;;;;;;;15.48;11.88;;;;;;;0.58;84.90;96772.72;4195920;28;20734;-84
2022/12/09 06:03:28;;;;;;;17.30;10.20;;;;;;;0.62;85.62;96769.13;4182688;28;20221;-84
2022/12/09 06:05:32;;;;;;;17.98;11.70;;;;;;;0.68;85.63;96779.06;4185768;28;20636;-84
2022/12/09 06:07:36;;;;;;;15.98;9.93;;;;;;;0.71;85.65;96772.97;4185595;28;20324;-84
2022/12/09 06:09:40;;;;;;;12.80;9.05;;;;;;;0.73;86.01;96774.53;4205041;28;20207;-84
2022/12/09 06:11:45;;;;;;;11.43;8.63;;;;;;;0.76;86.03;96776.09;4196657;28;20212;-84
2022/12/09 06:13:49;;;;;;;12.77;9.52;;;;;;;0.72;85.97;96770.31;4187282;28;20214;-84
2022/12/09 06:15:52;;;;;;;14.80;10.10;;;;;;;0.74;85.57;96773.63;4186809;28;20212;-84
2022/12/09 06:17:56;;;;;;;14.93;8.75;;;;;;;0.75;86.17;96766.75;4189391;28;20251;-84
2022/12/09 06:20:00;;;;;;;15.75;9.35;;;;;;;0.75;86.03;96770.16;4201879;28;20212;-85
2022/12/09 06:22:03;;;;;;;12.63;9.52;;;;;;;0.76;85.82;96768.41;4185946;28;20217;-85
2022/12/09 06:24:07;;;;;;;13.48;9.63;;;;;;;0.75;86.45;96766.75;4186029;28;20665;-84
2022/12/09 06:26:15;;;;;;;13.27;10.18;;;;;;;0.77;85.77;96770.09;4184767;28;20228;-84
2022/12/09 06:28:20;;;;;;;14.85;9.30;;;;;;;0.78;85.89;96772.53;4201173;28;20263;-84
2022/12/09 06:30:24;;;;;;;14.27;9.63;;;;;;;0.78;85.52;96771.72;4186146;28;20356;-84
2022/12/09 06:32:27;;;;;;;18.50;11.43;;;;;;;0.76;86.21;96766.66;4195568;28;20218;-85
2022/12/09 06:34:30;;;;;;;13.50;9.88;;;;;;;0.81;85.67;96762.13;4187337;28;20205;-84
2022/12/09 06:36:34;;;;;;;19.27;10.45;;;;;;;0.78;86.17;96758.91;4193735;28;20237;-84
2022/12/09 06:38:37;;;;;;;17.20;10.27;;;;;;;0.78;85.77;96761.47;4181334;28;20202;-84
2022/12/09 06:40:41;;;;;;;14.55;9.60;;;;;;;0.81;86.44;96758.75;4198274;28;20216;-84
2022/12/09 06:42:44;;;;;;;15.27;9.65;;;;;;;0.84;86.11;96768.84;4182844;28;20232;-84
2022/12/09 06:44:49;;;;;;;13.38;9.52;;;;;;;0.86;86.55;96760.16;4196055;28;20213;-84
2022/12/09 06:46:52;;;;;;;13.88;9.93;;;;;;;0.87;86.22;96763.56;4180158;28;20209;-83
2022/12/09 06:48:56;;;;;;;14.48;10.10;;;;;;;0.79;86.39;96758.81;4194875;28;20259;-84
2022/12/09 06:50:59;;;;;;;17.58;10.73;;;;;;;0.79;85.81;96760.56;4186818;28;20217;-85
2022/12/09 06:53:03;;;;;;;17.65;10.73;;;;;;;0.79;86.13;96771.66;4186267;28;20646;-83
2022/12/09 06:55:07;;;;;;;16.25;10.52;;;;;;;0.81;86.44;96763.88;4186483;28;20291;-83
2022/12/09 06:57:11;;;;;;;16.25;10.05;;;;;;;0.85;86.79;96765.38;4184767;28;20331;-83
2022/12/09 06:59:15;;;;;;;13.13;9.73;;;;;;;0.88;85.80;96771.16;4199420;28;20561;-83
2022/12/09 07:01:21;;;;;;;15.45;10.43;;;;;;;0.90;86.55;96778.78;4195735;28;20299;-83
2022/12/09 07:03:25;;;;;;;16.15;10.48;;;;;;;0.89;86.12;96770.28;4197802;28;20763;-83
2022/12/09 07:05:29;;;;;;;15.23;10.15;;;;;;;0.91;85.73;96780.44;4183138;28;20683;-84
2022/12/09 07:07:32;;;;;;;15.25;10.30;;;;;;;0.93;85.88;96776.88;4190773;28;21059;-85
2022/12/09 07:09:36;;;;;;;16.17;9.95;;;;;;;0.95;86.07;96773.34;4192661;28;20281;-85
2022/12/09 07:11:41;;;;;;;15.63;10.20;;;;;;;1.00;85.82;96767.97;4205592;28;20216;-84
2022/12/09 07:13:44;;;;;;;34.10;19.70;;;;;;;1.01;86.36;96767.06;4201122;28;20200;-84
2022/12/09 07:15:47;;;;;;;19.13;12.43;;;;;;;1.05;86.17;96773.69;4204174;28;20813;-87
2022/12/09 07:17:52;;;;;;;14.63;9.75;;;;;;;1.07;85.87;96775.25;4189367;28;20716;-84
2022/12/09 07:19:56;;;;;;;15.60;10.73;;;;;;;1.09;86.34;96788.00;4196659;28;20209;-84
2022/12/09 07:22:08;;;;;;;15.40;10.45;;;;;;;1.09;86.19;96786.25;4203010;28;20205;-85
2022/12/09 07:24:12;;;;;;;18.55;10.07;;;;;;;1.11;85.60;96781.91;4186139;28;20303;-84
2022/12/09 07:26:16;;;;;;;17.15;9.05;;;;;;;1.12;86.31;96790.41;4200939;28;20204;-84
2022/12/09 07:28:19;;;;;;;18.02;12.00;;;;;;;1.14;86.45;96780.91;4204226;28;20209;-84
2022/12/09 07:30:22;;;;;;;14.70;10.55;;;;;;;1.19;85.93;96782.31;4192706;28;20201;-85
2022/12/09 07:32:26;;;;;;;16.48;11.23;;;;;;;1.21;85.53;96779.69;4197499;28;20251;-84
2022/12/09 07:34:31;;;;;;;15.98;10.00;;;;;;;1.23;85.87;96783.78;4206848;28;20212;-84
2022/12/09 07:36:36;;;;;;;15.57;10.43;;;;;;;1.25;86.00;96776.88;4202909;28;20258;-85
2022/12/09 07:38:40;;;;;;;20.65;11.18;;;;;;;1.25;85.65;96781.16;4190280;28;20212;-83
2022/12/09 07:40:43;;;;;;;21.98;9.93;;;;;;;1.24;85.94;96766.69;4184394;28;20225;-84
2022/12/09 07:42:46;;;;;;;31.52;19.27;;;;;;;1.26;85.87;96762.28;4200779;28;20210;-84
2022/12/09 07:44:54;;;;;;;17.38;10.90;;;;;;;1.30;85.62;96763.78;4186183;28;20218;-84
2022/12/09 07:46:58;;;;;;;13.70;9.15;;;;;;;1.33;86.16;96763.63;4185665;28;20247;-84
2022/12/09 07:49:03;;;;;;;14.82;10.40;;;;;;;1.33;85.99;96758.50;4191582;28;20575;-85
2022/12/09 07:51:09;;;;;;;14.95;9.30;;;;;;;1.35;86.09;96759.22;4210440;28;20229;-83
2022/12/09 07:53:13;;;;;;;21.23;11.32;;;;;;;1.39;86.36;96766.69;4206454;28;20289;-84
2022/12/09 07:55:16;;;;;;;19.83;10.38;;;;;;;1.43;85.65;96758.72;4203884;28;20684;-83
2022/12/09 07:57:19;;;;;;;13.13;9.18;;;;;;;1.46;85.92;96758.56;4195407;28;20692;-84
2022/12/09 07:59:23;;;;;;;18.17;10.65;;;;;;;1.47;85.86;96757.66;4202544;28;20724;-83
2022/12/09 08:01:28;;;;;;;15.38;10.55;;;;;;;1.50;85.72;96760.06;4181021;28;20488;-85
2022/12/09 08:03:32;;;;;;;17.48;10.75;;;;;;;1.55;85.77;96759.81;4183079;28;20267;-84
2022/12/09 08:05:35;;;;;;;17.23;10.85;;;;;;;1.59;86.51;96756.16;4200916;28;20283;-84
2022/12/09 08:07:41;;;;;;;18.27;11.00;;;;;;;1.62;86.02;96767.06;4181684;28;22227;-84
2022/12/09 08:09:46;;;;;;;14.35;10.27;;;;;;;1.64;86.08;96764.41;4180461;28;20302;-84
2022/12/09 08:11:50;;;;;;;20.75;11.18;;;;;;;1.67;85.57;96756.53;4192049;28;20726;-84
2022/12/09 08:13:56;;;;;;;17.52;11.45;;;;;;;1.69;85.65;96757.31;4185809;28;20224;-84
2022/12/09 08:16:02;;;;;;;18.35;11.52;;;;;;;1.71;85.48;96761.44;4200914;28;20197;-83
2022/12/09 08:18:06;;;;;;;17.75;11.07;;;;;;;1.75;86.42;96756.97;4192279;28;20202;-84
2022/12/09 08:20:10;;;;;;;19.77;12.30;;;;;;;1.77;86.22;96760.28;4204040;28;20213;-84
2022/12/09 08:22:14;;;;;;;19.90;12.43;;;;;;;1.78;86.15;96762.75;4187823;28;20205;-84
2022/12/09 08:24:18;;;;;;;18.35;11.98;;;;;;;1.83;86.28;96759.94;4202656;28;20291;-84
2022/12/09 08:26:24;;;;;;;29.15;17.90;;;;;;;1.90;86.21;96767.22;4182755;28;20234;-84
2022/12/09 08:28:31;;;;;;;22.05;12.80;;;;;;;1.93;86.47;96759.34;4185910;28;20256;-84
2022/12/09 08:30:36;;;;;;;24.80;14.57;;;;;;;1.96;85.78;96757.41;4201169;28;20200;-84
2022/12/09 08:32:39;;;;;;;21.30;12.60;;;;;;;1.99;85.88;96756.44;4192511;28;20268;-84
2022/12/09 08:34:42;;;;;;;18.65;11.55;;;;;;;2.03;86.24;96758.75;4200175;28;20749;-85
2022/12/09 08:36:46;;;;;;;18.08;11.88;;;;;;;2.08;86.21;96761.06;4193129;28;20253;-84
2022/12/09 08:38:49;;;;;;;20.73;12.65;;;;;;;2.12;86.28;96749.66;4202611;28;20207;-84
2022/12/09 08:40:54;;;;;;;23.50;14.32;;;;;;;2.17;86.15;96750.25;4187764;28;20206;-84
2022/12/09 08:42:57;;;;;;;23.88;13.57;;;;;;;2.22;86.71;96749.06;4200903;28;20261;-84
2022/12/09 08:45:01;;;;;;;24.60;15.60;;;;;;;2.27;85.97;96751.34;4198992;28;20208;-85
2022/12/09 08:47:06;;;;;;;20.73;13.38;;;;;;;2.28;85.91;96737.59;4192531;28;20219;-85
2022/12/09 08:49:09;;;;;;;21.55;13.15;;;;;;;2.34;85.58;96738.88;4194238;28;20214;-85
2022/12/09 08:51:13;;;;;;;25.27;14.65;;;;;;;2.40;85.87;96745.41;4183802;28;20703;-85
2022/12/09 08:53:16;;;;;;;21.92;12.73;;;;;;;2.47;85.38;96752.69;4187883;28;20198;-84
2022/12/09 08:55:20;;;;;;;22.05;13.55;;;;;;;2.56;85.21;96751.34;4187648;28;20205;-84
2022/12/09 08:57:24;;;;;;;27.02;14.77;;;;;;;2.65;85.63;96748.22;4197646;28;20255;-85
2022/12/09 08:59:28;;;;;;;19.55;13.05;;;;;;;2.71;85.00;96743.53;4199799;28;20295;-84
2022/12/09 09:01:33;;;;;;;21.05;13.63;;;;;;;2.78;85.08;96741.41;4203301;28;20232;-85
2022/12/09 09:03:37;;;;;;;24.23;14.50;;;;;;;2.83;84.13;96743.63;4199133;28;20205;-84
2022/12/09 09:05:41;;;;;;;20.10;13.55;;;;;;;2.89;83.41;96747.59;4199545;28;20246;-85
2022/12/09 09:07:45;;;;;;;24.38;14.55;;;;;;;2.95;84.14;96747.22;4185305;28;20208;-84
2022/12/09 09:09:48;;;;;;;25.98;14.98;;;;;;;2.96;83.98;96738.56;4184174;28;20210;-85
2022/12/09 09:11:52;;;;;;;24.90;15.07;;;;;;;3.01;83.91;96746.84;4202246;28;20256;-85
2022/12/09 09:13:57;;;;;;;28.25;16.38;;;;;;;3.03;83.57;96745.00;4200103;28;20208;-84
2022/12/09 09:16:00;;;;;;;22.35;13.80;;;;;;;3.05;83.18;96738.88;4187085;28;20197;-85
2022/12/09 09:18:04;;;;;;;21.90;15.00;;;;;;;3.09;84.07;96739.50;4184902;28;20943;-84
2022/12/09 09:20:08;;;;;;;24.35;15.52;;;;;;;3.13;83.42;96730.63;4200871;28;20211;-85
2022/12/09 09:22:12;;;;;;;35.83;18.95;;;;;;;3.12;82.97;96734.16;4198082;28;20232;-85
2022/12/09 09:24:17;;;;;;;22.05;13.43;;;;;;;3.07;82.34;96736.19;4188270;28;20229;-84
2022/12/09 09:26:23;;;;;;;22.60;13.85;;;;;;;2.96;82.30;96734.25;4185599;28;20811;-84
2022/12/09 09:28:26;;;;;;;17.30;12.20;;;;;;;2.92;82.60;96734.53;4203089;28;20206;-84
2022/12/09 09:30:35;;;;;;;23.63;14.27;;;;;;;2.84;82.46;96731.56;4198016;28;20291;-85
2022/12/09 09:32:38;;;;;;;20.30;13.30;;;;;;;2.79;83.10;96731.03;4201828;28;20270;-85
2022/12/09 09:34:41;;;;;;;22.15;14.77;;;;;;;2.84;83.42;96729.84;4184257;28;20731;-85
2022/12/09 09:36:45;;;;;;;22.75;13.13;;;;;;;2.86;83.11;96727.19;4197542;28;20201;-85
2022/12/09 09:38:49;;;;;;;21.13;13.07;;;;;;;2.79;83.39;96725.06;4196864;28;20213;-84
2022/12/09 09:40:53;;;;;;;23.90;14.73;;;;;;;2.80;83.64;96722.41;4196033;28;20255;-85
2022/12/09 09:42:57;;;;;;;28.90;15.45;;;;;;;2.83;83.95;96728.19;4183271;28;20205;-84
2022/12/09 09:45:04;;;;;;;22.50;13.07;;;;;;;2.73;83.15;96730.59;4196875;28;20666;-84